Time;durP1;ratioP1;P1;durP2;ratioP2;P2;SDS_P1;SDS_P2;PMS_P1;PMS_P2;Temp;Humidity;BMP_temperature;BMP_pressure;BME280_temperature;BME280_humidity;BME280_pressure;Samples;Min_cycle;Max_cycle;Signal;HPM_P1;HPM_P2
2021/08/17 00:00:28;;;;;;;7.55;4.18;;;16.50;99.90;;;;;;4971564;28;20784;-79
2021/08/17 00:02:53;;;;;;;6.15;4.60;;;16.30;99.90;;;;;;4972414;28;20062;-78
2021/08/17 00:05:19;;;;;;;11.55;5.30;;;16.20;99.90;;;;;;4972750;28;20030;-79
2021/08/17 00:07:45;;;;;;;8.70;4.63;;;16.10;99.90;;;;;;4972197;28;20434;-78
2021/08/17 00:10:11;;;;;;;10.75;5.00;;;16.10;99.90;;;;;;4972835;28;20027;-79
2021/08/17 00:12:37;;;;;;;7.93;4.75;;;16.10;99.90;;;;;;4970885;28;20050;-79
2021/08/17 00:15:05;;;;;;;7.68;4.90;;;16.10;99.90;;;;;;4971519;28;20039;-78
2021/08/17 00:17:31;;;;;;;10.13;3.92;;;16.00;99.90;;;;;;4986973;28;20022;-78
2021/08/17 00:19:56;;;;;;;7.47;4.28;;;16.00;99.90;;;;;;5052968;28;20396;-79
2021/08/17 00:22:23;;;;;;;8.77;5.05;;;16.00;99.90;;;;;;4960379;28;20022;-79
2021/08/17 00:24:52;;;;;;;9.45;4.20;;;15.90;99.90;;;;;;4970973;28;20030;-78
2021/08/17 00:27:18;;;;;;;7.45;4.57;;;15.90;99.90;;;;;;4970744;28;20019;-79
2021/08/17 00:29:44;;;;;;;6.38;5.03;;;16.00;99.90;;;;;;4987397;28;20066;-78
2021/08/17 00:32:10;;;;;;;11.40;5.20;;;16.00;99.90;;;;;;4971930;28;20023;-78
2021/08/17 00:34:36;;;;;;;10.80;5.35;;;16.00;99.90;;;;;;4972322;28;20510;-79
2021/08/17 00:37:02;;;;;;;11.02;5.18;;;16.00;99.90;;;;;;4972023;28;20034;-78
2021/08/17 00:39:27;;;;;;;8.63;5.07;;;16.10;99.90;;;;;;4970849;28;20030;-80
2021/08/17 00:41:53;;;;;;;9.32;4.80;;;16.10;99.90;;;;;;4986828;28;20033;-79
2021/08/17 00:44:25;;;;;;;8.73;5.35;;;16.20;99.90;;;;;;4972235;28;20030;-80
2021/08/17 00:46:51;;;;;;;11.10;5.68;;;16.20;99.90;;;;;;4970643;28;20041;-79
2021/08/17 00:49:19;;;;;;;8.32;4.85;;;16.20;99.90;;;;;;4970905;28;20023;-79
2021/08/17 00:51:44;;;;;;;7.22;5.32;;;16.30;99.90;;;;;;4970457;28;20050;-79
2021/08/17 00:54:10;;;;;;;10.80;4.60;;;16.20;99.90;;;;;;4963996;28;20077;-79
2021/08/17 00:56:37;;;;;;;7.53;5.05;;;16.20;99.90;;;;;;4971604;28;20034;-79
2021/08/17 00:59:03;;;;;;;8.65;4.97;;;16.10;99.90;;;;;;4972005;28;20031;-79
2021/08/17 01:01:29;;;;;;;5.82;4.78;;;16.10;99.90;;;;;;4971428;28;20030;-79
2021/08/17 01:03:56;;;;;;;7.47;5.43;;;16.00;99.90;;;;;;4971935;28;20034;-79
2021/08/17 01:06:23;;;;;;;8.70;4.15;;;16.00;99.90;;;;;;4971431;28;20031;-79
2021/08/17 01:08:49;;;;;;;7.28;4.07;;;16.00;99.90;;;;;;4971119;28;20049;-79
2021/08/17 01:11:16;;;;;;;7.25;4.78;;;15.90;99.90;;;;;;4971471;28;20074;-79
2021/08/17 01:13:41;;;;;;;6.22;3.88;;;15.90;99.90;;;;;;4971241;28;20400;-80
2021/08/17 01:16:07;;;;;;;5.15;3.53;;;15.90;99.90;;;;;;4971807;28;20023;-78
2021/08/17 01:18:33;;;;;;;6.28;3.55;;;15.90;99.90;;;;;;4986118;28;20035;-78
2021/08/17 01:20:59;;;;;;;4.22;3.47;;;15.80;99.90;;;;;;4986613;28;20560;-79
2021/08/17 01:23:26;;;;;;;4.32;3.17;;;15.80;99.90;;;;;;4978788;28;20508;-78
2021/08/17 01:25:53;;;;;;;5.93;3.58;;;15.80;99.90;;;;;;4971497;28;20034;-78
2021/08/17 01:28:19;;;;;;;5.57;4.25;;;15.80;99.90;;;;;;4985548;28;20396;-78
2021/08/17 01:30:44;;;;;;;5.38;3.35;;;15.80;99.90;;;;;;4986526;28;20031;-79
2021/08/17 01:33:13;;;;;;;5.97;3.47;;;15.80;99.90;;;;;;4970965;28;20033;-78
2021/08/17 01:35:38;;;;;;;5.65;3.45;;;15.80;99.90;;;;;;5051489;28;20027;-78
2021/08/17 01:38:05;;;;;;;4.60;3.72;;;15.80;99.90;;;;;;4965877;28;20027;-79
2021/08/17 01:40:31;;;;;;;5.45;3.30;;;15.90;99.90;;;;;;4970087;28;20031;-79
2021/08/17 01:42:57;;;;;;;4.88;3.83;;;16.00;99.90;;;;;;4969974;28;20034;-79
2021/08/17 01:45:22;;;;;;;6.50;3.70;;;16.10;99.90;;;;;;4971259;28;20019;-79
2021/08/17 01:47:49;;;;;;;6.20;3.72;;;16.10;99.90;;;;;;4969651;28;20411;-78
2021/08/17 01:50:15;;;;;;;7.55;4.00;;;16.10;99.90;;;;;;5053293;28;20065;-79
2021/08/17 01:52:41;;;;;;;6.78;3.80;;;16.20;99.90;;;;;;4970701;28;20027;-79
2021/08/17 01:55:07;;;;;;;13.57;4.70;;;16.20;99.90;;;;;;4970497;28;20035;-79
2021/08/17 01:57:35;;;;;;;5.05;4.10;;;16.10;99.90;;;;;;4969548;28;20119;-79
2021/08/17 02:00:01;;;;;;;10.25;5.28;;;16.10;99.90;;;;;;4969800;28;20084;-78
2021/08/17 02:02:26;;;;;;;8.18;4.45;;;16.10;99.90;;;;;;4970372;28;20031;-78
2021/08/17 02:04:52;;;;;;;9.32;4.18;;;16.10;99.90;;;;;;4971171;28;20027;-79
2021/08/17 02:07:18;;;;;;;4.53;4.00;;;16.10;99.90;;;;;;4985570;28;20536;-79
2021/08/17 02:09:43;;;;;;;7.15;4.05;;;16.10;99.90;;;;;;5051241;28;20029;-78
2021/08/17 02:12:09;;;;;;;6.45;4.10;;;16.10;99.90;;;;;;4981928;28;20027;-79
2021/08/17 02:14:35;;;;;;;6.15;3.78;;;16.20;99.90;;;;;;4965272;28;20480;-79
2021/08/17 02:17:01;;;;;;;6.45;3.95;;;16.20;99.90;;;;;;4970654;28;20098;-79
2021/08/17 02:19:26;;;;;;;9.32;4.15;;;16.20;99.90;;;;;;5051292;28;20015;-79
2021/08/17 02:21:52;;;;;;;6.10;4.28;;;16.20;99.90;;;;;;4955829;28;20030;-78
2021/08/17 02:24:17;;;;;;;6.15;3.92;;;16.20;99.90;;;;;;4972948;28;20034;-79
2021/08/17 02:26:43;;;;;;;4.35;3.60;;;16.20;99.90;;;;;;4974221;28;20393;-79
2021/08/17 02:29:09;;;;;;;8.35;4.50;;;16.30;99.90;;;;;;4974216;28;20031;-80
2021/08/17 02:31:34;;;;;;;5.80;3.63;;;16.20;99.90;;;;;;4974261;28;20470;-79
2021/08/17 02:34:00;;;;;;;6.63;4.30;;;16.20;99.90;;;;;;4987368;28;20049;-79
2021/08/17 02:36:25;;;;;;;5.32;4.45;;;16.20;99.90;;;;;;4973663;28;20114;-79
2021/08/17 02:38:51;;;;;;;6.10;4.53;;;16.20;99.90;;;;;;4973941;28;20122;-79
2021/08/17 02:41:17;;;;;;;6.65;3.72;;;16.10;99.90;;;;;;5058025;28;20023;-79
2021/08/17 02:43:42;;;;;;;8.65;4.93;;;16.10;99.90;;;;;;5054343;28;20039;-79
2021/08/17 02:46:08;;;;;;;6.10;4.57;;;16.10;99.90;;;;;;4953630;28;20027;-79
2021/08/17 02:48:34;;;;;;;8.55;4.13;;;16.00;99.90;;;;;;4972839;28;20031;-79
2021/08/17 02:50:59;;;;;;;6.35;4.10;;;16.00;99.90;;;;;;4974011;28;20029;-79
2021/08/17 02:53:25;;;;;;;8.73;4.88;;;15.90;99.90;;;;;;5056968;28;20045;-79
2021/08/17 02:55:51;;;;;;;6.97;4.05;;;15.80;99.90;;;;;;4973859;28;20062;-79
2021/08/17 02:58:17;;;;;;;9.07;3.85;;;15.80;99.90;;;;;;4971649;28;20445;-80
2021/08/17 03:00:44;;;;;;;6.13;4.07;;;15.80;99.90;;;;;;5057428;28;20015;-79
2021/08/17 03:03:11;;;;;;;6.55;4.10;;;15.80;99.90;;;;;;5053486;28;20031;-79
2021/08/17 03:05:37;;;;;;;14.27;4.18;;;15.80;99.90;;;;;;4964555;28;20014;-80
2021/08/17 03:08:03;;;;;;;5.85;4.25;;;15.80;99.90;;;;;;4973199;28;20061;-80
2021/08/17 03:10:36;;;;;;;10.20;4.63;;;15.80;99.90;;;;;;4973575;28;20027;-80
2021/08/17 03:13:03;;;;;;;5.25;4.25;;;15.80;99.90;;;;;;4971851;28;20495;-80
2021/08/17 03:15:33;;;;;;;9.15;4.65;;;15.80;99.90;;;;;;4971767;28;20492;-79
2021/08/17 03:18:06;;;;;;;7.32;4.72;;;15.80;99.90;;;;;;4987596;28;20035;-79
2021/08/17 03:20:33;;;;;;;8.68;4.38;;;15.80;99.90;;;;;;4954237;28;20038;-79
2021/08/17 03:23:00;;;;;;;7.90;4.50;;;15.80;99.90;;;;;;4964975;28;20080;-79
2021/08/17 03:25:26;;;;;;;8.23;4.78;;;15.90;99.90;;;;;;4973295;28;20473;-79
2021/08/17 03:27:52;;;;;;;7.95;4.40;;;15.80;99.90;;;;;;4971682;28;20022;-79
2021/08/17 03:30:20;;;;;;;7.43;4.35;;;15.80;99.90;;;;;;4972144;28;20583;-79
2021/08/17 03:32:46;;;;;;;6.65;4.40;;;15.80;99.90;;;;;;4969682;28;20074;-79
2021/08/17 03:35:12;;;;;;;5.40;3.85;;;15.80;99.90;;;;;;4971044;28;20038;-79
2021/08/17 03:37:39;;;;;;;5.25;4.63;;;15.80;99.90;;;;;;4972727;28;20035;-79
2021/08/17 03:40:10;;;;;;;20.20;6.03;;;15.80;99.90;;;;;;4973250;28;20050;-79
2021/08/17 03:42:37;;;;;;;8.50;4.75;;;15.70;99.90;;;;;;5056458;28;20027;-79
2021/08/17 03:45:08;;;;;;;7.47;4.28;;;15.70;99.90;;;;;;4973150;28;20065;-79
2021/08/17 03:47:33;;;;;;;8.23;4.80;;;15.60;99.90;;;;;;4962726;28;20027;-79
2021/08/17 03:49:59;;;;;;;9.25;4.63;;;15.50;99.90;;;;;;4952394;29;20469;-79
2021/08/17 03:52:25;;;;;;;8.85;4.50;;;15.50;99.90;;;;;;4961444;28;20392;-79
2021/08/17 03:54:51;;;;;;;11.35;4.43;;;15.50;99.90;;;;;;4987925;28;20447;-79
2021/08/17 03:57:17;;;;;;;8.43;5.18;;;15.40;99.90;;;;;;4971153;28;20015;-79
2021/08/17 03:59:42;;;;;;;10.77;4.90;;;15.40;99.90;;;;;;4971653;28;20031;-80
2021/08/17 04:02:08;;;;;;;8.25;5.43;;;15.40;99.90;;;;;;4971221;28;20027;-80
2021/08/17 04:04:34;;;;;;;11.48;4.75;;;15.40;99.90;;;;;;4983107;28;20023;-80
2021/08/17 04:06:59;;;;;;;8.25;5.10;;;15.40;99.90;;;;;;4971169;28;20031;-80
2021/08/17 04:09:25;;;;;;;11.07;5.07;;;15.30;99.90;;;;;;4972382;28;20026;-80
2021/08/17 04:11:50;;;;;;;7.78;5.35;;;15.40;99.90;;;;;;4987698;28;20031;-80
2021/08/17 04:14:16;;;;;;;23.60;6.22;;;15.30;99.90;;;;;;4972377;28;20039;-80
2021/08/17 04:16:42;;;;;;;7.22;4.82;;;15.30;99.90;;;;;;4970495;28;20473;-80
2021/08/17 04:19:07;;;;;;;10.43;4.78;;;15.30;99.90;;;;;;4970358;28;20504;-79
2021/08/17 04:21:33;;;;;;;7.93;5.45;;;15.30;99.90;;;;;;4970904;28;20026;-79
2021/08/17 04:24:00;;;;;;;6.78;4.00;;;15.30;99.90;;;;;;4971917;28;20480;-79
2021/08/17 04:26:26;;;;;;;5.97;4.32;;;15.30;99.90;;;;;;4971468;28;20034;-80
2021/08/17 04:28:52;;;;;;;7.03;4.90;;;15.30;99.90;;;;;;4972455;28;20113;-79
2021/08/17 04:31:18;;;;;;;7.47;3.90;;;15.30;99.90;;;;;;4987472;28;20424;-79
2021/08/17 04:33:43;;;;;;;6.78;4.28;;;15.30;99.90;;;;;;4971108;28;20043;-80
2021/08/17 04:36:09;;;;;;;7.60;3.85;;;15.40;99.90;;;;;;4972353;28;20023;-80
2021/08/17 04:38:34;;;;;;;7.15;4.40;;;15.30;99.90;;;;;;4971970;28;20039;-80
2021/08/17 04:41:00;;;;;;;5.05;4.07;;;15.30;99.90;;;;;;5055741;28;20137;-79
2021/08/17 04:43:26;;;;;;;7.20;4.00;;;15.20;99.90;;;;;;4971791;28;20075;-79
2021/08/17 04:45:52;;;;;;;7.90;4.35;;;15.20;99.90;;;;;;4987148;28;20511;-79
2021/08/17 04:48:18;;;;;;;8.23;3.90;;;15.20;99.90;;;;;;4986913;28;20026;-79
2021/08/17 04:50:44;;;;;;;4.07;3.67;;;15.10;99.90;;;;;;4970778;28;20023;-78
2021/08/17 04:53:10;;;;;;;5.57;3.50;;;15.10;99.90;;;;;;4972071;28;20106;-79
2021/08/17 04:55:36;;;;;;;7.85;3.65;;;14.90;99.90;;;;;;4969033;28;20023;-79
2021/08/17 04:58:03;;;;;;;5.20;3.85;;;14.80;99.90;;;;;;4986886;28;20035;-78
2021/08/17 05:00:29;;;;;;;8.02;3.20;;;14.80;99.90;;;;;;4970696;28;20023;-79
2021/08/17 05:02:55;;;;;;;7.80;3.92;;;14.90;99.90;;;;;;4971713;28;20029;-79
2021/08/17 05:05:21;;;;;;;9.75;3.08;;;14.90;99.90;;;;;;4987021;28;20446;-79
2021/08/17 05:07:49;;;;;;;4.45;2.80;;;14.80;99.90;;;;;;4971586;28;20439;-78
2021/08/17 05:10:16;;;;;;;5.85;2.95;;;14.70;99.90;;;;;;4969120;28;20029;-79
2021/08/17 05:12:42;;;;;;;5.43;2.90;;;14.60;99.90;;;;;;4969762;28;20027;-78
2021/08/17 05:15:09;;;;;;;4.47;3.10;;;14.60;99.90;;;;;;4969470;28;20409;-79
2021/08/17 05:17:35;;;;;;;4.43;2.78;;;14.60;99.90;;;;;;4970718;28;20550;-79
2021/08/17 05:20:03;;;;;;;3.88;2.70;;;14.60;99.90;;;;;;4970742;28;20536;-79
2021/08/17 05:22:29;;;;;;;4.53;2.60;;;14.60;99.90;;;;;;4970927;28;20543;-80
2021/08/17 05:24:54;;;;;;;5.25;3.05;;;14.60;99.90;;;;;;4967038;28;20028;-80
2021/08/17 05:27:20;;;;;;;6.07;3.38;;;14.60;99.90;;;;;;4967045;28;20027;-79
2021/08/17 05:29:50;;;;;;;4.47;2.50;;;14.60;99.90;;;;;;4966562;28;20062;-78
2021/08/17 05:32:16;;;;;;;4.47;2.70;;;14.60;99.90;;;;;;4950179;29;20081;-78
2021/08/17 05:34:41;;;;;;;4.82;3.42;;;14.60;99.90;;;;;;4952199;28;20065;-78
2021/08/17 05:37:07;;;;;;;3.50;3.00;;;14.70;99.90;;;;;;4950685;29;20513;-79
2021/08/17 05:39:33;;;;;;;4.50;3.33;;;14.60;99.90;;;;;;4967027;28;20113;-79
2021/08/17 05:41:58;;;;;;;6.25;2.80;;;14.50;99.90;;;;;;4971176;28;20108;-80
2021/08/17 05:44:24;;;;;;;3.63;2.53;;;14.20;99.90;;;;;;4969971;28;20113;-80
2021/08/17 05:46:50;;;;;;;6.45;2.35;;;14.20;99.90;;;;;;4969199;28;20115;-79
2021/08/17 05:49:15;;;;;;;4.28;2.25;;;14.10;99.90;;;;;;4970440;28;20377;-80
2021/08/17 05:51:41;;;;;;;4.32;2.08;;;13.90;99.90;;;;;;4965444;28;20305;-81
2021/08/17 05:54:07;;;;;;;7.00;2.72;;;13.70;99.90;;;;;;4959228;28;20101;-79
2021/08/17 05:56:32;;;;;;;2.88;2.10;;;13.70;99.90;;;;;;4977551;28;20023;-79
2021/08/17 05:58:58;;;;;;;11.02;3.13;;;13.60;99.90;;;;;;4982000;28;20265;-79
2021/08/17 06:01:24;;;;;;;3.25;2.88;;;13.60;99.90;;;;;;4966075;28;20031;-77
2021/08/17 06:03:50;;;;;;;4.82;2.33;;;13.70;99.90;;;;;;4963013;28;20074;-80
2021/08/17 06:06:16;;;;;;;5.88;2.17;;;13.80;99.90;;;;;;4961456;28;20533;-81
2021/08/17 06:08:41;;;;;;;3.97;2.53;;;13.70;99.90;;;;;;4978710;28;20023;-80
2021/08/17 06:11:07;;;;;;;3.90;2.67;;;13.90;99.90;;;;;;4962938;28;20070;-80
2021/08/17 06:13:33;;;;;;;4.60;2.67;;;13.90;99.90;;;;;;4980724;28;20497;-80
2021/08/17 06:15:59;;;;;;;5.65;2.28;;;13.90;99.90;;;;;;4965438;28;20076;-80
2021/08/17 06:18:25;;;;;;;4.07;2.10;;;14.00;99.90;;;;;;4962373;28;20015;-81
2021/08/17 06:20:51;;;;;;;4.72;2.40;;;13.90;99.90;;;;;;4978228;28;20022;-81
2021/08/17 06:23:16;;;;;;;6.18;2.72;;;14.00;99.90;;;;;;4973534;28;20063;-81
2021/08/17 06:25:42;;;;;;;5.00;2.78;;;13.90;99.90;;;;;;4973494;28;20036;-81
2021/08/17 06:28:27;;;;;;;5.25;3.05;;;13.90;99.90;;;;;;4968141;28;20587;-81
2021/08/17 06:30:53;;;;;;;5.13;3.15;;;13.90;99.90;;;;;;4965921;28;20039;-80
2021/08/17 06:33:19;;;;;;;5.68;3.42;;;13.80;99.90;;;;;;4965598;28;20071;-79
2021/08/17 06:35:45;;;;;;;4.72;3.25;;;13.70;99.90;;;;;;4971181;28;20027;-80
2021/08/17 06:38:11;;;;;;;5.93;3.85;;;13.60;99.90;;;;;;4967244;28;20094;-79
2021/08/17 06:40:36;;;;;;;4.60;3.60;;;13.60;99.90;;;;;;4965654;28;20217;-80
2021/08/17 06:43:02;;;;;;;4.05;2.97;;;13.50;99.90;;;;;;4967271;28;20549;-80
2021/08/17 06:45:28;;;;;;;4.40;2.95;;;13.50;99.90;;;;;;4978748;28;20031;-80
2021/08/17 06:47:55;;;;;;;4.72;3.65;;;13.40;99.90;;;;;;4977100;28;21913;-79
2021/08/17 06:50:21;;;;;;;3.83;3.05;;;13.30;99.90;;;;;;4966110;28;20043;-79
2021/08/17 06:52:48;;;;;;;3.20;2.55;;;13.20;99.90;;;;;;4964983;28;20524;-81
2021/08/17 06:55:14;;;;;;;4.85;3.55;;;13.20;99.90;;;;;;4964910;28;20043;-80
2021/08/17 06:57:39;;;;;;;4.38;3.42;;;13.20;99.90;;;;;;4955801;28;20100;-79
2021/08/17 07:00:07;;;;;;;5.50;3.45;;;13.20;99.90;;;;;;4980354;28;20473;-80
2021/08/17 07:02:34;;;;;;;4.95;3.17;;;13.20;99.90;;;;;;4979919;28;20092;-79
2021/08/17 07:04:59;;;;;;;4.95;3.60;;;13.30;99.90;;;;;;4979718;28;20091;-80
2021/08/17 07:07:25;;;;;;;3.47;2.63;;;13.20;99.90;;;;;;4992368;28;20507;-80
2021/08/17 07:09:51;;;;;;;3.25;2.30;;;13.10;99.90;;;;;;4968672;28;20043;-80
2021/08/17 07:12:17;;;;;;;2.75;2.10;;;13.00;99.90;;;;;;4960811;28;20106;-81
2021/08/17 07:14:43;;;;;;;2.33;2.13;;;13.00;99.90;;;;;;4981821;28;20034;-80
2021/08/17 07:17:08;;;;;;;3.83;2.80;;;12.80;99.90;;;;;;4984128;28;20027;-79
2021/08/17 07:19:34;;;;;;;3.00;2.55;;;12.70;99.90;;;;;;4961138;28;20032;-80
2021/08/17 07:22:01;;;;;;;3.90;2.08;;;12.80;99.90;;;;;;4952430;28;20092;-80
2021/08/17 07:24:27;;;;;;;3.72;2.20;;;12.80;99.90;;;;;;4952820;28;20035;-80
2021/08/17 07:26:53;;;;;;;4.88;2.53;;;12.70;99.90;;;;;;4970757;28;20106;-81
2021/08/17 07:29:19;;;;;;;3.88;2.65;;;12.70;99.90;;;;;;4972026;28;20164;-81
2021/08/17 07:31:44;;;;;;;6.20;2.65;;;12.60;99.90;;;;;;4971040;28;20035;-80
2021/08/17 07:34:10;;;;;;;6.43;2.60;;;12.60;99.90;;;;;;4971727;28;20058;-79
2021/08/17 07:36:36;;;;;;;3.08;2.35;;;12.70;99.90;;;;;;4971172;28;20076;-81
2021/08/17 07:39:12;;;;;;;3.88;2.38;;;12.80;99.90;;;;;;4971427;28;20055;-80
2021/08/17 07:41:38;;;;;;;4.88;2.35;;;12.80;99.90;;;;;;4985850;28;20472;-80
2021/08/17 07:44:04;;;;;;;4.82;2.42;;;12.90;99.90;;;;;;4986412;28;20088;-80
2021/08/17 07:46:30;;;;;;;4.47;2.75;;;13.10;99.90;;;;;;4971616;28;20023;-81
2021/08/17 07:48:56;;;;;;;7.20;2.95;;;13.00;99.90;;;;;;4970671;28;20042;-80
2021/08/17 07:51:22;;;;;;;5.20;2.10;;;13.00;99.90;;;;;;4971818;28;20019;-81
2021/08/17 07:53:48;;;;;;;5.80;2.53;;;13.00;99.90;;;;;;4985473;28;20047;-80
2021/08/17 07:56:17;;;;;;;6.20;2.30;;;13.00;99.90;;;;;;4960730;28;20459;-81
2021/08/17 07:58:43;;;;;;;5.40;2.90;;;13.10;99.90;;;;;;4965779;28;20030;-82
2021/08/17 08:01:11;;;;;;;5.65;2.53;;;13.30;99.90;;;;;;4952070;28;20427;-79
2021/08/17 08:03:39;;;;;;;8.55;2.80;;;13.40;99.90;;;;;;4952811;28;20080;-80
2021/08/17 08:06:09;;;;;;;6.13;2.67;;;13.50;99.90;;;;;;4951534;28;20050;-80
2021/08/17 08:08:35;;;;;;;6.03;2.25;;;13.60;99.90;;;;;;4951161;28;20063;-79
2021/08/17 08:11:02;;;;;;;4.75;2.83;;;13.50;99.90;;;;;;4980956;28;20125;-80
2021/08/17 08:13:28;;;;;;;6.07;3.00;;;13.60;99.90;;;;;;4967421;28;20031;-80
2021/08/17 08:15:54;;;;;;;4.57;2.58;;;13.70;99.90;;;;;;4961274;28;20035;-81
2021/08/17 08:18:19;;;;;;;3.75;2.53;;;13.80;99.90;;;;;;4950802;28;20477;-79
2021/08/17 08:20:45;;;;;;;6.32;3.45;;;13.90;99.90;;;;;;4980108;28;20046;-78
2021/08/17 08:23:11;;;;;;;3.97;2.08;;;13.80;99.90;;;;;;4966410;28;20062;-79
2021/08/17 08:25:37;;;;;;;5.78;2.42;;;13.90;99.90;;;;;;4973136;28;20133;-79
2021/08/17 08:28:03;;;;;;;3.95;2.50;;;13.90;99.90;;;;;;4981742;28;20069;-78
2021/08/17 08:30:29;;;;;;;6.10;2.88;;;13.90;99.90;;;;;;4966016;28;20408;-80
2021/08/17 08:32:55;;;;;;;5.60;2.65;;;13.80;99.90;;;;;;4980253;28;20027;-79
2021/08/17 08:35:21;;;;;;;7.55;2.67;;;13.80;99.90;;;;;;4984485;28;20488;-78
2021/08/17 08:37:47;;;;;;;5.70;2.38;;;13.90;99.90;;;;;;4965430;28;20519;-79
2021/08/17 08:40:13;;;;;;;5.10;2.78;;;13.90;99.90;;;;;;4972859;28;20043;-79
2021/08/17 08:42:39;;;;;;;6.13;2.60;;;14.20;99.90;;;;;;4972360;28;20039;-79
2021/08/17 08:45:05;;;;;;;6.07;3.20;;;14.30;99.90;;;;;;4971160;28;20027;-79
2021/08/17 08:47:34;;;;;;;6.72;3.50;;;14.60;99.90;;;;;;4972146;28;20019;-79
2021/08/17 08:50:01;;;;;;;4.18;2.20;;;14.80;99.90;;;;;;4972290;28;20027;-79
2021/08/17 08:52:27;;;;;;;3.85;2.45;;;15.00;99.90;;;;;;4972134;28;20419;-77
2021/08/17 08:54:53;;;;;;;5.57;2.70;;;14.90;99.90;;;;;;4955100;28;20043;-79
2021/08/17 08:57:18;;;;;;;5.05;2.63;;;15.00;99.90;;;;;;4969951;28;20420;-77
2021/08/17 08:59:45;;;;;;;4.30;2.30;;;14.90;99.90;;;;;;4960993;28;20027;-80
2021/08/17 09:02:13;;;;;;;5.10;3.15;;;14.90;99.90;;;;;;4965202;28;20027;-80
2021/08/17 09:04:47;;;;;;;4.88;3.00;;;14.90;99.90;;;;;;4962156;28;20033;-80
2021/08/17 09:07:13;;;;;;;7.40;2.55;;;14.90;99.90;;;;;;4965239;28;20110;-80
2021/08/17 09:09:39;;;;;;;3.65;2.38;;;15.00;99.90;;;;;;4967132;28;20110;-80
2021/08/17 09:12:05;;;;;;;7.95;3.10;;;14.90;99.90;;;;;;4980855;28;20031;-79
2021/08/17 09:14:33;;;;;;;6.47;2.83;;;14.90;99.90;;;;;;4967067;28;20498;-80
2021/08/17 09:17:04;;;;;;;5.57;2.95;;;14.80;99.90;;;;;;4955775;28;20034;-80
2021/08/17 09:19:36;;;;;;;10.13;3.17;;;14.80;99.90;;;;;;4964888;28;20080;-80
2021/08/17 09:22:23;;;;;;;8.07;2.97;;;14.60;99.90;;;;;;4969055;28;20033;-80
2021/08/17 09:24:52;;;;;;;7.80;3.42;;;14.60;99.90;;;;;;4966791;28;20054;-80
2021/08/17 09:27:21;;;;;;;9.10;3.38;;;14.60;99.90;;;;;;4951725;28;20111;-80
2021/08/17 09:29:49;;;;;;;7.80;2.78;;;14.80;99.90;;;;;;4974325;28;20023;-80
2021/08/17 09:32:20;;;;;;;11.18;3.58;;;15.10;99.90;;;;;;4957892;28;20488;-80
2021/08/17 09:34:58;;;;;;;5.72;2.88;;;15.50;99.90;;;;;;4966568;28;20039;-80
2021/08/17 09:37:31;;;;;;;6.45;3.00;;;15.90;99.90;;;;;;4951727;28;20504;-80
2021/08/17 09:40:02;;;;;;;5.35;2.63;;;16.20;99.90;;;;;;4963669;28;20031;-79
2021/08/17 09:42:32;;;;;;;6.45;2.80;;;16.30;99.90;;;;;;4974515;28;20019;-79
2021/08/17 09:45:18;;;;;;;3.05;2.47;;;16.20;99.90;;;;;;4959504;28;20412;-80
2021/08/17 09:47:54;;;;;;;6.47;2.72;;;16.10;99.90;;;;;;4975897;28;20041;-79
2021/08/17 09:50:30;;;;;;;3.85;2.78;;;15.90;99.90;;;;;;4967866;28;20027;-79
2021/08/17 09:53:10;;;;;;;5.75;2.83;;;15.70;99.90;;;;;;4967235;28;20046;-79
2021/08/17 09:55:45;;;;;;;4.63;3.03;;;15.40;99.90;;;;;;4983366;28;20034;-79
2021/08/17 09:58:27;;;;;;;4.30;2.80;;;15.20;99.90;;;;;;4968065;28;20076;-79
2021/08/17 10:00:55;;;;;;;5.20;3.73;;;15.20;99.90;;;;;;4966378;28;20027;-79
2021/08/17 10:03:23;;;;;;;7.70;3.88;;;15.20;99.90;;;;;;4968523;28;20392;-79
2021/08/17 10:05:49;;;;;;;7.38;3.45;;;15.10;99.90;;;;;;4952153;28;20031;-79
2021/08/17 10:08:18;;;;;;;9.50;3.20;;;15.20;99.90;;;;;;4967919;28;20019;-80
2021/08/17 10:10:46;;;;;;;5.30;3.10;;;15.20;99.90;;;;;;4956423;28;20105;-79
2021/08/17 10:13:18;;;;;;;5.32;2.92;;;15.00;99.90;;;;;;4965996;28;20031;-79
2021/08/17 10:15:45;;;;;;;6.63;3.00;;;15.00;99.90;;;;;;4967163;28;20117;-79
2021/08/17 10:18:14;;;;;;;4.85;2.85;;;15.00;99.90;;;;;;4964737;28;20434;-79
2021/08/17 10:20:43;;;;;;;6.30;2.85;;;15.10;99.90;;;;;;4968295;28;20035;-78
2021/08/17 10:23:14;;;;;;;3.17;2.50;;;15.20;99.90;;;;;;4982384;28;20442;-79
2021/08/17 10:25:52;;;;;;;5.53;2.55;;;15.40;99.90;;;;;;4984233;28;20122;-79
2021/08/17 10:28:28;;;;;;;4.85;2.83;;;15.50;99.90;;;;;;4970813;28;20031;-78
2021/08/17 10:30:55;;;;;;;7.35;3.15;;;15.40;99.90;;;;;;4970987;28;20477;-78
2021/08/17 10:33:38;;;;;;;7.38;2.63;;;15.30;99.90;;;;;;4969418;28;20061;-79
2021/08/17 10:36:04;;;;;;;7.82;4.00;;;15.30;99.90;;;;;;4983752;28;20493;-80
2021/08/17 10:38:30;;;;;;;14.00;6.85;;;15.30;99.90;;;;;;4954698;28;20034;-79
2021/08/17 10:40:55;;;;;;;13.02;6.55;;;15.40;99.90;;;;;;4968960;28;20087;-78
2021/08/17 10:43:31;;;;;;;5.18;3.00;;;15.40;99.90;;;;;;4972111;28;20027;-80
2021/08/17 10:45:59;;;;;;;6.30;3.95;;;15.50;99.90;;;;;;4972104;28;20506;-80
2021/08/17 10:48:50;;;;;;;7.70;3.85;;;15.90;99.90;;;;;;4987941;28;20019;-79
2021/08/17 10:51:18;;;;;;;9.32;4.25;;;16.00;99.90;;;;;;4989030;28;20027;-80
2021/08/17 10:53:49;;;;;;;8.85;5.55;;;16.30;99.90;;;;;;4973997;28;20173;-79
2021/08/17 10:56:15;;;;;;;6.50;3.83;;;16.40;99.90;;;;;;4973957;28;20075;-79
2021/08/17 10:58:46;;;;;;;9.05;5.80;;;16.50;99.90;;;;;;4973847;28;20105;-79
2021/08/17 11:01:33;;;;;;;12.82;4.80;;;16.30;99.90;;;;;;4966711;28;20389;-79
2021/08/17 11:03:59;;;;;;;4.15;2.90;;;16.20;99.90;;;;;;4952039;29;20145;-80
2021/08/17 11:06:50;;;;;;;6.45;3.72;;;16.00;99.90;;;;;;4953093;29;20050;-80
2021/08/17 11:09:21;;;;;;;8.32;4.10;;;16.10;99.90;;;;;;4954313;29;20058;-80
2021/08/17 11:11:59;;;;;;;6.55;3.40;;;16.10;99.90;;;;;;4953103;29;20481;-79
2021/08/17 11:14:27;;;;;;;4.47;2.85;;;16.00;99.90;;;;;;4971833;28;20046;-79
2021/08/17 11:16:55;;;;;;;5.40;2.67;;;16.10;99.90;;;;;;4969048;28;20034;-79
2021/08/17 11:19:24;;;;;;;4.90;2.38;;;16.00;99.90;;;;;;4986343;28;20028;-80
2021/08/17 11:21:55;;;;;;;6.45;2.53;;;16.00;99.90;;;;;;4969850;28;20168;-79
2021/08/17 11:24:22;;;;;;;6.18;2.88;;;16.40;99.90;;;;;;4969842;28;20033;-79
2021/08/17 11:26:52;;;;;;;6.20;2.63;;;16.70;99.90;;;;;;4986105;28;20054;-79
2021/08/17 11:29:42;;;;;;;6.53;3.47;;;16.80;99.90;;;;;;4985735;28;20027;-79
2021/08/17 11:32:27;;;;;;;6.57;2.67;;;17.10;97.90;;;;;;4968582;28;20026;-79
2021/08/17 11:34:52;;;;;;;3.13;2.08;;;17.10;95.20;;;;;;4984561;28;20054;-79
2021/08/17 11:37:18;;;;;;;3.08;2.17;;;17.00;95.60;;;;;;4971958;28;20059;-79
2021/08/17 11:39:45;;;;;;;4.78;2.28;;;17.20;97.10;;;;;;4986744;28;20499;-79
2021/08/17 11:42:15;;;;;;;4.70;2.15;;;17.00;94.50;;;;;;4986907;28;20472;-79
2021/08/17 11:44:43;;;;;;;4.05;2.50;;;17.00;94.20;;;;;;4971933;28;20435;-79
2021/08/17 11:47:14;;;;;;;4.75;3.30;;;16.90;95.80;;;;;;4971761;28;20073;-79
2021/08/17 11:49:41;;;;;;;6.43;3.40;;;16.90;95.30;;;;;;4971223;28;20037;-79
2021/08/17 11:52:10;;;;;;;6.20;3.30;;;16.80;95.50;;;;;;4986410;28;20015;-79
2021/08/17 11:54:45;;;;;;;5.18;3.40;;;16.90;98.90;;;;;;4985466;28;20043;-80
2021/08/17 11:57:11;;;;;;;5.90;2.70;;;16.70;96.70;;;;;;4971957;28;20031;-79
2021/08/17 11:59:45;;;;;;;5.00;3.70;;;16.50;99.90;;;;;;4986925;28;20038;-80
2021/08/17 12:02:18;;;;;;;10.73;4.80;;;16.40;99.90;;;;;;4965876;28;20030;-79
2021/08/17 12:05:05;;;;;;;9.13;4.78;;;16.40;99.90;;;;;;4972399;28;20035;-79
2021/08/17 12:07:32;;;;;;;11.68;6.43;;;16.20;99.90;;;;;;4971349;28;20026;-79
2021/08/17 12:10:17;;;;;;;8.88;6.10;;;16.30;99.90;;;;;;4973016;28;20068;-80
2021/08/17 12:13:12;;;;;;;11.55;6.10;;;16.30;99.90;;;;;;4972586;28;20049;-79
2021/08/17 12:15:44;;;;;;;6.57;4.88;;;16.50;99.90;;;;;;4987729;28;20126;-79
2021/08/17 12:18:12;;;;;;;8.90;5.20;;;16.50;99.90;;;;;;4987670;28;20027;-79
2021/08/17 12:20:57;;;;;;;8.40;5.75;;;16.60;99.90;;;;;;4987710;28;20065;-79
2021/08/17 12:23:25;;;;;;;16.52;6.22;;;16.80;99.90;;;;;;4987568;28;20093;-79
2021/08/17 12:25:56;;;;;;;9.98;5.47;;;16.70;99.50;;;;;;4987631;28;20058;-79
2021/08/17 12:28:33;;;;;;;4.38;2.95;;;16.90;99.90;;;;;;4987555;28;20023;-80
2021/08/17 12:31:26;;;;;;;4.65;2.67;;;16.90;98.20;;;;;;4968594;28;20076;-79
2021/08/17 12:33:54;;;;;;;5.32;2.80;;;16.80;98.60;;;;;;4986479;28;20051;-79
2021/08/17 12:36:43;;;;;;;3.13;2.60;;;16.80;99.40;;;;;;4971225;28;20022;-79
2021/08/17 12:39:19;;;;;;;6.32;3.53;;;16.80;99.90;;;;;;4968537;28;20116;-79
2021/08/17 12:42:00;;;;;;;7.07;4.93;;;16.80;98.70;;;;;;4953239;28;20027;-79
2021/08/17 12:44:33;;;;;;;3.85;2.45;;;16.90;99.30;;;;;;4951865;29;20043;-79
2021/08/17 12:47:25;;;;;;;4.07;2.60;;;16.90;94.40;;;;;;4951885;28;20084;-79
2021/08/17 12:49:53;;;;;;;4.97;3.35;;;17.20;94.40;;;;;;4951892;29;20491;-79